sensor_id;sensor_type;location;lat;lon;timestamp;P1;durP1;ratioP1;P2;durP2;ratioP2
36191;SDS011;22233;42.708;23.360;2023-12-20T00:02:10;185.93;;;114.85;;
36191;SDS011;22233;42.708;23.360;2023-12-20T00:04:36;188.27;;;116.28;;
36191;SDS011;22233;42.708;23.360;2023-12-20T00:07:01;184.40;;;112.75;;
36191;SDS011;22233;42.708;23.360;2023-12-20T00:09:28;168.10;;;106.68;;
36191;SDS011;22233;42.708;23.360;2023-12-20T00:11:53;167.55;;;104.65;;
36191;SDS011;22233;42.708;23.360;2023-12-20T00:14:18;143.35;;;92.03;;
36191;SDS011;22233;42.708;23.360;2023-12-20T00:16:44;133.32;;;82.47;;
36191;SDS011;22233;42.708;23.360;2023-12-20T00:19:09;145.05;;;88.10;;
36191;SDS011;22233;42.708;23.360;2023-12-20T00:21:34;137.18;;;89.22;;
36191;SDS011;22233;42.708;23.360;2023-12-20T00:24:00;148.10;;;91.05;;
36191;SDS011;22233;42.708;23.360;2023-12-20T00:26:25;135.00;;;84.15;;
36191;SDS011;22233;42.708;23.360;2023-12-20T00:28:51;140.13;;;84.82;;
36191;SDS011;22233;42.708;23.360;2023-12-20T00:31:16;132.88;;;82.65;;
36191;SDS011;22233;42.708;23.360;2023-12-20T00:33:41;141.35;;;81.22;;
36191;SDS011;22233;42.708;23.360;2023-12-20T00:36:08;143.47;;;82.10;;
36191;SDS011;22233;42.708;23.360;2023-12-20T00:38:34;146.30;;;78.53;;
36191;SDS011;22233;42.708;23.360;2023-12-20T00:41:00;140.23;;;72.22;;
36191;SDS011;22233;42.708;23.360;2023-12-20T00:43:25;136.13;;;68.88;;
36191;SDS011;22233;42.708;23.360;2023-12-20T00:45:51;125.82;;;69.35;;
36191;SDS011;22233;42.708;23.360;2023-12-20T00:48:16;139.50;;;71.55;;
36191;SDS011;22233;42.708;23.360;2023-12-20T00:50:41;140.02;;;71.45;;
36191;SDS011;22233;42.708;23.360;2023-12-20T00:53:07;125.60;;;66.00;;
36191;SDS011;22233;42.708;23.360;2023-12-20T00:55:32;124.68;;;66.13;;
36191;SDS011;22233;42.708;23.360;2023-12-20T00:57:57;109.05;;;63.90;;
36191;SDS011;22233;42.708;23.360;2023-12-20T01:00:24;105.80;;;60.92;;
36191;SDS011;22233;42.708;23.360;2023-12-20T01:02:49;106.78;;;61.20;;
36191;SDS011;22233;42.708;23.360;2023-12-20T01:05:16;104.65;;;61.83;;
36191;SDS011;22233;42.708;23.360;2023-12-20T01:07:42;91.60;;;53.83;;
36191;SDS011;22233;42.708;23.360;2023-12-20T01:10:08;79.80;;;53.60;;
36191;SDS011;22233;42.708;23.360;2023-12-20T01:12:33;83.80;;;53.00;;
36191;SDS011;22233;42.708;23.360;2023-12-20T01:15:00;80.60;;;51.43;;
36191;SDS011;22233;42.708;23.360;2023-12-20T01:17:26;88.32;;;53.78;;
36191;SDS011;22233;42.708;23.360;2023-12-20T01:19:51;81.20;;;52.22;;
36191;SDS011;22233;42.708;23.360;2023-12-20T01:22:16;83.53;;;50.22;;
36191;SDS011;22233;42.708;23.360;2023-12-20T01:24:42;74.93;;;47.90;;
36191;SDS011;22233;42.708;23.360;2023-12-20T01:27:07;78.88;;;47.60;;
36191;SDS011;22233;42.708;23.360;2023-12-20T01:29:33;69.95;;;44.63;;
36191;SDS011;22233;42.708;23.360;2023-12-20T01:31:58;71.68;;;45.75;;
36191;SDS011;22233;42.708;23.360;2023-12-20T01:34:23;71.40;;;43.85;;
36191;SDS011;22233;42.708;23.360;2023-12-20T01:36:49;73.75;;;44.22;;
36191;SDS011;22233;42.708;23.360;2023-12-20T01:39:14;77.50;;;45.42;;
36191;SDS011;22233;42.708;23.360;2023-12-20T01:41:39;77.78;;;45.97;;
36191;SDS011;22233;42.708;23.360;2023-12-20T01:44:05;78.47;;;44.50;;
36191;SDS011;22233;42.708;23.360;2023-12-20T01:46:30;72.97;;;42.10;;
36191;SDS011;22233;42.708;23.360;2023-12-20T01:48:56;76.38;;;44.90;;
36191;SDS011;22233;42.708;23.360;2023-12-20T01:51:22;68.20;;;44.15;;
36191;SDS011;22233;42.708;23.360;2023-12-20T01:53:47;78.95;;;47.33;;
36191;SDS011;22233;42.708;23.360;2023-12-20T01:56:13;89.57;;;48.40;;
36191;SDS011;22233;42.708;23.360;2023-12-20T01:58:42;82.38;;;46.42;;
36191;SDS011;22233;42.708;23.360;2023-12-20T02:01:09;76.30;;;46.05;;
36191;SDS011;22233;42.708;23.360;2023-12-20T02:03:35;84.97;;;50.13;;
36191;SDS011;22233;42.708;23.360;2023-12-20T02:06:01;104.03;;;51.58;;
36191;SDS011;22233;42.708;23.360;2023-12-20T02:08:28;98.20;;;53.88;;
36191;SDS011;22233;42.708;23.360;2023-12-20T02:10:53;94.55;;;49.00;;
36191;SDS011;22233;42.708;23.360;2023-12-20T02:13:20;87.68;;;48.30;;
36191;SDS011;22233;42.708;23.360;2023-12-20T02:15:46;102.32;;;52.80;;
36191;SDS011;22233;42.708;23.360;2023-12-20T02:18:11;107.80;;;53.78;;
36191;SDS011;22233;42.708;23.360;2023-12-20T02:20:40;90.10;;;50.10;;
36191;SDS011;22233;42.708;23.360;2023-12-20T02:23:06;95.07;;;50.17;;
36191;SDS011;22233;42.708;23.360;2023-12-20T02:25:31;96.18;;;50.40;;
36191;SDS011;22233;42.708;23.360;2023-12-20T02:27:56;105.63;;;52.85;;
36191;SDS011;22233;42.708;23.360;2023-12-20T02:30:22;82.32;;;48.90;;
36191;SDS011;22233;42.708;23.360;2023-12-20T02:32:49;97.30;;;49.78;;
36191;SDS011;22233;42.708;23.360;2023-12-20T02:35:15;99.50;;;51.55;;
36191;SDS011;22233;42.708;23.360;2023-12-20T02:37:40;99.50;;;50.08;;
36191;SDS011;22233;42.708;23.360;2023-12-20T02:40:06;94.65;;;49.97;;
36191;SDS011;22233;42.708;23.360;2023-12-20T02:42:32;85.85;;;46.15;;
36191;SDS011;22233;42.708;23.360;2023-12-20T02:44:57;97.13;;;49.33;;
36191;SDS011;22233;42.708;23.360;2023-12-20T02:47:22;85.93;;;46.92;;
36191;SDS011;22233;42.708;23.360;2023-12-20T02:49:48;111.05;;;51.58;;
36191;SDS011;22233;42.708;23.360;2023-12-20T02:52:14;96.57;;;48.63;;
36191;SDS011;22233;42.708;23.360;2023-12-20T02:54:39;100.53;;;47.42;;
36191;SDS011;22233;42.708;23.360;2023-12-20T02:57:05;87.68;;;48.08;;
36191;SDS011;22233;42.708;23.360;2023-12-20T02:59:31;112.88;;;48.80;;
36191;SDS011;22233;42.708;23.360;2023-12-20T03:01:56;113.35;;;49.15;;
36191;SDS011;22233;42.708;23.360;2023-12-20T03:04:22;112.47;;;51.40;;
36191;SDS011;22233;42.708;23.360;2023-12-20T03:06:47;162.45;;;53.45;;
36191;SDS011;22233;42.708;23.360;2023-12-20T03:09:13;100.90;;;44.40;;
36191;SDS011;22233;42.708;23.360;2023-12-20T03:11:38;123.63;;;51.15;;
36191;SDS011;22233;42.708;23.360;2023-12-20T03:14:04;115.22;;;48.30;;
36191;SDS011;22233;42.708;23.360;2023-12-20T03:16:29;112.90;;;50.35;;
36191;SDS011;22233;42.708;23.360;2023-12-20T03:18:56;165.90;;;54.90;;
36191;SDS011;22233;42.708;23.360;2023-12-20T03:21:21;163.95;;;54.35;;
36191;SDS011;22233;42.708;23.360;2023-12-20T03:23:47;125.60;;;51.88;;
36191;SDS011;22233;42.708;23.360;2023-12-20T03:26:13;129.95;;;49.72;;
36191;SDS011;22233;42.708;23.360;2023-12-20T03:28:39;127.93;;;51.80;;
36191;SDS011;22233;42.708;23.360;2023-12-20T03:31:04;118.10;;;52.20;;
36191;SDS011;22233;42.708;23.360;2023-12-20T03:33:30;123.85;;;50.15;;
36191;SDS011;22233;42.708;23.360;2023-12-20T03:35:55;130.23;;;48.97;;
36191;SDS011;22233;42.708;23.360;2023-12-20T03:38:21;137.98;;;50.05;;
36191;SDS011;22233;42.708;23.360;2023-12-20T03:40:48;156.68;;;50.15;;
36191;SDS011;22233;42.708;23.360;2023-12-20T03:43:14;84.75;;;45.38;;
36191;SDS011;22233;42.708;23.360;2023-12-20T03:45:40;111.00;;;49.40;;
36191;SDS011;22233;42.708;23.360;2023-12-20T03:48:05;124.28;;;50.55;;
36191;SDS011;22233;42.708;23.360;2023-12-20T03:50:31;91.15;;;46.35;;
36191;SDS011;22233;42.708;23.360;2023-12-20T03:52:56;113.35;;;47.83;;
36191;SDS011;22233;42.708;23.360;2023-12-20T03:55:21;121.15;;;53.08;;
36191;SDS011;22233;42.708;23.360;2023-12-20T03:57:47;130.75;;;54.17;;
36191;SDS011;22233;42.708;23.360;2023-12-20T04:00:12;143.77;;;54.67;;
36191;SDS011;22233;42.708;23.360;2023-12-20T04:02:38;109.60;;;50.70;;
36191;SDS011;22233;42.708;23.360;2023-12-20T04:05:05;133.60;;;53.53;;
36191;SDS011;22233;42.708;23.360;2023-12-20T04:07:31;129.27;;;52.10;;
36191;SDS011;22233;42.708;23.360;2023-12-20T04:09:56;101.82;;;52.35;;
36191;SDS011;22233;42.708;23.360;2023-12-20T04:12:22;107.90;;;50.17;;
36191;SDS011;22233;42.708;23.360;2023-12-20T04:14:47;93.88;;;49.85;;
36191;SDS011;22233;42.708;23.360;2023-12-20T04:17:13;138.18;;;54.80;;
36191;SDS011;22233;42.708;23.360;2023-12-20T04:19:40;109.50;;;54.60;;
36191;SDS011;22233;42.708;23.360;2023-12-20T04:22:06;117.00;;;56.88;;
36191;SDS011;22233;42.708;23.360;2023-12-20T04:24:31;136.98;;;55.92;;
36191;SDS011;22233;42.708;23.360;2023-12-20T04:26:56;131.77;;;55.75;;
36191;SDS011;22233;42.708;23.360;2023-12-20T04:29:22;133.23;;;54.90;;
36191;SDS011;22233;42.708;23.360;2023-12-20T04:31:47;119.05;;;57.63;;
36191;SDS011;22233;42.708;23.360;2023-12-20T04:34:12;147.52;;;59.92;;
36191;SDS011;22233;42.708;23.360;2023-12-20T04:36:38;118.63;;;59.25;;
36191;SDS011;22233;42.708;23.360;2023-12-20T04:39:03;106.28;;;54.75;;
36191;SDS011;22233;42.708;23.360;2023-12-20T04:41:29;116.90;;;57.13;;
36191;SDS011;22233;42.708;23.360;2023-12-20T04:43:54;119.93;;;58.05;;
36191;SDS011;22233;42.708;23.360;2023-12-20T04:46:19;108.53;;;52.30;;
36191;SDS011;22233;42.708;23.360;2023-12-20T04:48:45;113.97;;;49.55;;
36191;SDS011;22233;42.708;23.360;2023-12-20T04:51:10;92.82;;;43.08;;
36191;SDS011;22233;42.708;23.360;2023-12-20T04:53:35;77.43;;;41.83;;
36191;SDS011;22233;42.708;23.360;2023-12-20T04:56:01;76.22;;;41.75;;
36191;SDS011;22233;42.708;23.360;2023-12-20T04:58:26;90.47;;;44.72;;
36191;SDS011;22233;42.708;23.360;2023-12-20T05:00:51;96.00;;;48.97;;
36191;SDS011;22233;42.708;23.360;2023-12-20T05:03:17;106.65;;;51.40;;
36191;SDS011;22233;42.708;23.360;2023-12-20T05:05:42;92.68;;;48.17;;
36191;SDS011;22233;42.708;23.360;2023-12-20T05:08:08;98.60;;;49.63;;
36191;SDS011;22233;42.708;23.360;2023-12-20T05:10:33;117.13;;;50.97;;
36191;SDS011;22233;42.708;23.360;2023-12-20T05:12:59;98.40;;;45.83;;
36191;SDS011;22233;42.708;23.360;2023-12-20T05:15:24;82.95;;;43.85;;
36191;SDS011;22233;42.708;23.360;2023-12-20T05:17:49;117.80;;;48.15;;
36191;SDS011;22233;42.708;23.360;2023-12-20T05:20:15;96.68;;;48.30;;
36191;SDS011;22233;42.708;23.360;2023-12-20T05:22:41;91.88;;;46.45;;
36191;SDS011;22233;42.708;23.360;2023-12-20T05:25:06;141.07;;;49.95;;
36191;SDS011;22233;42.708;23.360;2023-12-20T05:27:32;120.63;;;47.25;;
36191;SDS011;22233;42.708;23.360;2023-12-20T05:29:58;129.45;;;48.55;;
36191;SDS011;22233;42.708;23.360;2023-12-20T05:32:23;124.45;;;49.78;;
36191;SDS011;22233;42.708;23.360;2023-12-20T05:34:49;124.65;;;48.03;;
36191;SDS011;22233;42.708;23.360;2023-12-20T05:37:14;115.57;;;47.63;;
36191;SDS011;22233;42.708;23.360;2023-12-20T05:39:39;107.35;;;44.13;;
36191;SDS011;22233;42.708;23.360;2023-12-20T05:42:05;80.63;;;40.85;;
36191;SDS011;22233;42.708;23.360;2023-12-20T05:44:30;113.95;;;46.53;;
36191;SDS011;22233;42.708;23.360;2023-12-20T05:46:55;93.25;;;42.72;;
36191;SDS011;22233;42.708;23.360;2023-12-20T05:49:21;81.82;;;41.20;;
36191;SDS011;22233;42.708;23.360;2023-12-20T05:51:46;84.68;;;44.72;;
36191;SDS011;22233;42.708;23.360;2023-12-20T05:54:12;92.93;;;42.67;;
36191;SDS011;22233;42.708;23.360;2023-12-20T05:56:38;78.80;;;41.17;;
36191;SDS011;22233;42.708;23.360;2023-12-20T05:59:03;99.15;;;45.17;;
36191;SDS011;22233;42.708;23.360;2023-12-20T06:01:29;80.85;;;43.83;;
36191;SDS011;22233;42.708;23.360;2023-12-20T06:03:54;104.90;;;48.13;;
36191;SDS011;22233;42.708;23.360;2023-12-20T06:06:19;122.60;;;47.13;;
36191;SDS011;22233;42.708;23.360;2023-12-20T06:08:45;115.15;;;44.53;;
36191;SDS011;22233;42.708;23.360;2023-12-20T06:11:10;111.15;;;44.42;;
36191;SDS011;22233;42.708;23.360;2023-12-20T06:13:36;108.78;;;40.38;;
36191;SDS011;22233;42.708;23.360;2023-12-20T06:16:01;113.05;;;43.58;;
36191;SDS011;22233;42.708;23.360;2023-12-20T06:18:28;99.82;;;40.00;;
36191;SDS011;22233;42.708;23.360;2023-12-20T06:20:54;76.88;;;39.00;;
36191;SDS011;22233;42.708;23.360;2023-12-20T06:23:20;86.95;;;41.20;;
36191;SDS011;22233;42.708;23.360;2023-12-20T06:25:45;76.88;;;37.80;;
36191;SDS011;22233;42.708;23.360;2023-12-20T06:28:10;101.25;;;42.83;;
36191;SDS011;22233;42.708;23.360;2023-12-20T06:30:39;84.50;;;40.35;;
36191;SDS011;22233;42.708;23.360;2023-12-20T06:33:04;84.78;;;40.97;;
36191;SDS011;22233;42.708;23.360;2023-12-20T06:35:31;59.60;;;34.47;;
36191;SDS011;22233;42.708;23.360;2023-12-20T06:37:57;74.10;;;33.33;;
36191;SDS011;22233;42.708;23.360;2023-12-20T06:40:22;71.63;;;31.52;;
36191;SDS011;22233;42.708;23.360;2023-12-20T06:42:47;54.17;;;29.63;;
36191;SDS011;22233;42.708;23.360;2023-12-20T06:45:13;59.33;;;31.75;;
36191;SDS011;22233;42.708;23.360;2023-12-20T06:47:38;94.13;;;39.20;;
36191;SDS011;22233;42.708;23.360;2023-12-20T06:50:04;69.20;;;40.17;;
36191;SDS011;22233;42.708;23.360;2023-12-20T06:52:30;71.85;;;38.50;;
36191;SDS011;22233;42.708;23.360;2023-12-20T06:54:55;68.55;;;40.40;;
36191;SDS011;22233;42.708;23.360;2023-12-20T06:57:21;71.28;;;40.22;;
36191;SDS011;22233;42.708;23.360;2023-12-20T06:59:46;72.22;;;38.78;;
36191;SDS011;22233;42.708;23.360;2023-12-20T07:02:12;75.15;;;38.88;;
36191;SDS011;22233;42.708;23.360;2023-12-20T07:04:40;83.50;;;41.83;;
36191;SDS011;22233;42.708;23.360;2023-12-20T07:07:06;71.30;;;37.38;;
36191;SDS011;22233;42.708;23.360;2023-12-20T07:09:32;73.82;;;40.92;;
36191;SDS011;22233;42.708;23.360;2023-12-20T07:11:57;83.10;;;44.65;;
36191;SDS011;22233;42.708;23.360;2023-12-20T07:14:23;77.18;;;41.97;;
36191;SDS011;22233;42.708;23.360;2023-12-20T07:16:48;83.50;;;43.03;;
36191;SDS011;22233;42.708;23.360;2023-12-20T07:19:14;83.35;;;44.58;;
36191;SDS011;22233;42.708;23.360;2023-12-20T07:21:39;94.47;;;46.47;;
36191;SDS011;22233;42.708;23.360;2023-12-20T07:24:05;81.65;;;46.88;;
36191;SDS011;22233;42.708;23.360;2023-12-20T07:26:30;91.78;;;45.85;;
36191;SDS011;22233;42.708;23.360;2023-12-20T07:28:55;84.05;;;43.03;;
36191;SDS011;22233;42.708;23.360;2023-12-20T07:31:21;70.97;;;39.80;;
36191;SDS011;22233;42.708;23.360;2023-12-20T07:33:46;77.10;;;42.35;;
36191;SDS011;22233;42.708;23.360;2023-12-20T07:36:12;70.88;;;41.10;;
36191;SDS011;22233;42.708;23.360;2023-12-20T07:38:38;75.28;;;41.50;;
36191;SDS011;22233;42.708;23.360;2023-12-20T07:41:03;73.15;;;43.03;;
36191;SDS011;22233;42.708;23.360;2023-12-20T07:43:28;71.90;;;36.85;;
36191;SDS011;22233;42.708;23.360;2023-12-20T07:45:54;69.30;;;36.85;;
36191;SDS011;22233;42.708;23.360;2023-12-20T07:48:19;62.05;;;34.90;;
36191;SDS011;22233;42.708;23.360;2023-12-20T07:50:44;66.75;;;36.22;;
36191;SDS011;22233;42.708;23.360;2023-12-20T07:53:10;65.78;;;35.92;;
36191;SDS011;22233;42.708;23.360;2023-12-20T07:55:35;62.60;;;36.28;;
36191;SDS011;22233;42.708;23.360;2023-12-20T07:58:01;62.60;;;34.00;;
36191;SDS011;22233;42.708;23.360;2023-12-20T08:00:27;63.70;;;35.90;;
36191;SDS011;22233;42.708;23.360;2023-12-20T08:02:52;57.63;;;34.42;;
36191;SDS011;22233;42.708;23.360;2023-12-20T08:05:18;61.38;;;34.15;;
36191;SDS011;22233;42.708;23.360;2023-12-20T08:07:43;59.58;;;35.65;;
36191;SDS011;22233;42.708;23.360;2023-12-20T08:10:09;59.65;;;32.55;;
36191;SDS011;22233;42.708;23.360;2023-12-20T08:12:34;55.92;;;35.45;;
36191;SDS011;22233;42.708;23.360;2023-12-20T08:14:59;63.63;;;36.92;;
36191;SDS011;22233;42.708;23.360;2023-12-20T08:17:26;64.28;;;35.53;;
36191;SDS011;22233;42.708;23.360;2023-12-20T08:19:51;64.10;;;35.75;;
36191;SDS011;22233;42.708;23.360;2023-12-20T08:22:17;63.28;;;35.95;;
36191;SDS011;22233;42.708;23.360;2023-12-20T08:24:42;72.38;;;40.80;;
36191;SDS011;22233;42.708;23.360;2023-12-20T08:27:07;86.18;;;46.78;;
36191;SDS011;22233;42.708;23.360;2023-12-20T08:29:34;86.93;;;48.80;;
36191;SDS011;22233;42.708;23.360;2023-12-20T08:32:00;84.90;;;45.42;;
36191;SDS011;22233;42.708;23.360;2023-12-20T08:34:25;98.43;;;50.70;;
36191;SDS011;22233;42.708;23.360;2023-12-20T08:36:51;103.72;;;55.78;;
36191;SDS011;22233;42.708;23.360;2023-12-20T08:39:16;95.93;;;54.20;;
36191;SDS011;22233;42.708;23.360;2023-12-20T08:41:42;107.25;;;56.83;;
36191;SDS011;22233;42.708;23.360;2023-12-20T08:44:07;119.18;;;58.88;;
36191;SDS011;22233;42.708;23.360;2023-12-20T08:46:34;112.85;;;58.17;;
36191;SDS011;22233;42.708;23.360;2023-12-20T08:48:59;104.15;;;57.38;;
36191;SDS011;22233;42.708;23.360;2023-12-20T08:51:25;110.90;;;55.72;;
36191;SDS011;22233;42.708;23.360;2023-12-20T08:53:51;153.55;;;82.00;;
36191;SDS011;22233;42.708;23.360;2023-12-20T08:56:16;128.25;;;61.00;;
36191;SDS011;22233;42.708;23.360;2023-12-20T08:58:43;121.00;;;62.80;;
36191;SDS011;22233;42.708;23.360;2023-12-20T09:01:08;142.30;;;64.72;;
36191;SDS011;22233;42.708;23.360;2023-12-20T09:03:34;121.88;;;61.90;;
36191;SDS011;22233;42.708;23.360;2023-12-20T09:05:59;154.90;;;75.13;;
36191;SDS011;22233;42.708;23.360;2023-12-20T09:08:25;127.93;;;63.70;;
36191;SDS011;22233;42.708;23.360;2023-12-20T09:10:50;118.70;;;59.45;;
36191;SDS011;22233;42.708;23.360;2023-12-20T09:13:16;108.95;;;56.60;;
36191;SDS011;22233;42.708;23.360;2023-12-20T09:15:41;123.00;;;60.40;;
36191;SDS011;22233;42.708;23.360;2023-12-20T09:18:07;122.63;;;58.53;;
36191;SDS011;22233;42.708;23.360;2023-12-20T09:20:32;111.18;;;57.70;;
36191;SDS011;22233;42.708;23.360;2023-12-20T09:22:58;112.45;;;52.92;;
36191;SDS011;22233;42.708;23.360;2023-12-20T09:25:24;100.57;;;54.72;;
36191;SDS011;22233;42.708;23.360;2023-12-20T09:27:51;110.15;;;53.03;;
36191;SDS011;22233;42.708;23.360;2023-12-20T09:30:17;110.82;;;51.92;;
36191;SDS011;22233;42.708;23.360;2023-12-20T09:32:42;105.15;;;51.20;;
36191;SDS011;22233;42.708;23.360;2023-12-20T09:35:08;97.72;;;48.95;;
36191;SDS011;22233;42.708;23.360;2023-12-20T09:37:33;108.97;;;50.35;;
36191;SDS011;22233;42.708;23.360;2023-12-20T09:39:59;104.30;;;48.22;;
36191;SDS011;22233;42.708;23.360;2023-12-20T09:42:28;103.65;;;48.17;;
36191;SDS011;22233;42.708;23.360;2023-12-20T09:45:03;93.40;;;46.92;;
36191;SDS011;22233;42.708;23.360;2023-12-20T09:47:33;98.90;;;48.25;;
36191;SDS011;22233;42.708;23.360;2023-12-20T09:49:58;95.60;;;48.30;;
36191;SDS011;22233;42.708;23.360;2023-12-20T09:52:24;109.00;;;48.38;;
36191;SDS011;22233;42.708;23.360;2023-12-20T09:54:49;100.20;;;49.95;;
36191;SDS011;22233;42.708;23.360;2023-12-20T09:57:18;96.72;;;47.13;;
36191;SDS011;22233;42.708;23.360;2023-12-20T09:59:43;93.03;;;43.92;;
36191;SDS011;22233;42.708;23.360;2023-12-20T10:02:10;86.22;;;42.28;;
36191;SDS011;22233;42.708;23.360;2023-12-20T10:04:46;82.25;;;42.50;;
36191;SDS011;22233;42.708;23.360;2023-12-20T10:07:15;87.68;;;41.25;;
36191;SDS011;22233;42.708;23.360;2023-12-20T10:09:41;87.50;;;41.83;;
36191;SDS011;22233;42.708;23.360;2023-12-20T10:12:07;87.30;;;41.53;;
36191;SDS011;22233;42.708;23.360;2023-12-20T10:14:32;83.88;;;40.55;;
36191;SDS011;22233;42.708;23.360;2023-12-20T10:17:04;87.85;;;43.60;;
36191;SDS011;22233;42.708;23.360;2023-12-20T10:19:30;81.65;;;40.78;;
36191;SDS011;22233;42.708;23.360;2023-12-20T10:21:57;75.88;;;40.30;;
36191;SDS011;22233;42.708;23.360;2023-12-20T10:24:24;71.68;;;39.92;;
36191;SDS011;22233;42.708;23.360;2023-12-20T10:27:11;77.93;;;39.30;;
36191;SDS011;22233;42.708;23.360;2023-12-20T10:29:36;70.43;;;39.50;;
36191;SDS011;22233;42.708;23.360;2023-12-20T10:32:21;75.07;;;38.53;;
36191;SDS011;22233;42.708;23.360;2023-12-20T10:34:48;85.28;;;42.03;;
36191;SDS011;22233;42.708;23.360;2023-12-20T10:37:14;82.43;;;41.28;;
36191;SDS011;22233;42.708;23.360;2023-12-20T10:39:39;81.50;;;41.30;;
36191;SDS011;22233;42.708;23.360;2023-12-20T10:42:07;83.45;;;41.58;;
36191;SDS011;22233;42.708;23.360;2023-12-20T10:44:36;88.30;;;42.55;;
36191;SDS011;22233;42.708;23.360;2023-12-20T10:47:01;80.25;;;41.78;;
36191;SDS011;22233;42.708;23.360;2023-12-20T10:49:29;81.25;;;41.17;;
36191;SDS011;22233;42.708;23.360;2023-12-20T10:51:56;82.35;;;42.92;;
36191;SDS011;22233;42.708;23.360;2023-12-20T10:54:24;76.95;;;41.40;;
36191;SDS011;22233;42.708;23.360;2023-12-20T10:56:50;83.70;;;42.85;;
36191;SDS011;22233;42.708;23.360;2023-12-20T10:59:17;86.47;;;45.10;;
36191;SDS011;22233;42.708;23.360;2023-12-20T11:01:45;87.63;;;44.88;;
36191;SDS011;22233;42.708;23.360;2023-12-20T11:04:27;88.55;;;43.75;;
36191;SDS011;22233;42.708;23.360;2023-12-20T11:07:01;83.13;;;42.83;;
36191;SDS011;22233;42.708;23.360;2023-12-20T11:09:36;88.93;;;48.85;;
36191;SDS011;22233;42.708;23.360;2023-12-20T11:12:10;88.75;;;47.95;;
36191;SDS011;22233;42.708;23.360;2023-12-20T11:17:15;95.55;;;46.00;;
36191;SDS011;22233;42.708;23.360;2023-12-20T11:22:25;82.30;;;44.20;;
36191;SDS011;22233;42.708;23.360;2023-12-20T11:24:53;84.40;;;46.47;;
36191;SDS011;22233;42.708;23.360;2023-12-20T11:27:20;83.28;;;46.42;;
36191;SDS011;22233;42.708;23.360;2023-12-20T11:29:52;82.78;;;45.25;;
36191;SDS011;22233;42.708;23.360;2023-12-20T11:34:58;79.53;;;47.58;;
36191;SDS011;22233;42.708;23.360;2023-12-20T11:37:31;78.57;;;46.80;;
36191;SDS011;22233;42.708;23.360;2023-12-20T11:40:05;79.70;;;46.05;;
36191;SDS011;22233;42.708;23.360;2023-12-20T11:42:40;76.45;;;46.22;;
36191;SDS011;22233;42.708;23.360;2023-12-20T11:45:16;73.20;;;43.50;;
36191;SDS011;22233;42.708;23.360;2023-12-20T11:47:48;74.15;;;44.15;;
36191;SDS011;22233;42.708;23.360;2023-12-20T11:50:15;71.13;;;42.15;;
36191;SDS011;22233;42.708;23.360;2023-12-20T11:52:43;79.28;;;47.10;;
36191;SDS011;22233;42.708;23.360;2023-12-20T11:55:09;73.28;;;44.75;;
36191;SDS011;22233;42.708;23.360;2023-12-20T11:57:35;71.10;;;43.35;;
36191;SDS011;22233;42.708;23.360;2023-12-20T12:00:01;75.15;;;42.65;;
36191;SDS011;22233;42.708;23.360;2023-12-20T12:02:27;72.80;;;43.35;;
36191;SDS011;22233;42.708;23.360;2023-12-20T12:04:53;73.38;;;42.90;;
36191;SDS011;22233;42.708;23.360;2023-12-20T12:07:19;74.80;;;46.08;;
36191;SDS011;22233;42.708;23.360;2023-12-20T12:09:45;82.03;;;45.88;;
36191;SDS011;22233;42.708;23.360;2023-12-20T12:12:11;75.55;;;42.47;;
36191;SDS011;22233;42.708;23.360;2023-12-20T12:14:37;79.28;;;42.63;;
36191;SDS011;22233;42.708;23.360;2023-12-20T12:17:03;72.53;;;42.90;;
36191;SDS011;22233;42.708;23.360;2023-12-20T12:19:29;69.65;;;43.20;;
36191;SDS011;22233;42.708;23.360;2023-12-20T12:24:41;69.63;;;42.58;;
36191;SDS011;22233;42.708;23.360;2023-12-20T12:27:08;78.75;;;45.60;;
36191;SDS011;22233;42.708;23.360;2023-12-20T12:29:34;82.78;;;46.50;;
36191;SDS011;22233;42.708;23.360;2023-12-20T12:32:00;74.97;;;43.65;;
36191;SDS011;22233;42.708;23.360;2023-12-20T12:34:28;80.57;;;44.17;;
36191;SDS011;22233;42.708;23.360;2023-12-20T12:36:54;79.05;;;46.67;;
36191;SDS011;22233;42.708;23.360;2023-12-20T12:39:19;75.70;;;44.28;;
36191;SDS011;22233;42.708;23.360;2023-12-20T12:41:45;76.80;;;45.75;;
36191;SDS011;22233;42.708;23.360;2023-12-20T12:44:10;81.93;;;47.08;;
36191;SDS011;22233;42.708;23.360;2023-12-20T12:46:36;87.93;;;48.00;;
36191;SDS011;22233;42.708;23.360;2023-12-20T12:49:01;82.32;;;46.17;;
36191;SDS011;22233;42.708;23.360;2023-12-20T12:51:26;86.85;;;47.15;;
36191;SDS011;22233;42.708;23.360;2023-12-20T12:53:52;80.72;;;44.10;;
36191;SDS011;22233;42.708;23.360;2023-12-20T12:56:18;78.70;;;43.42;;
36191;SDS011;22233;42.708;23.360;2023-12-20T12:58:43;76.40;;;42.65;;
36191;SDS011;22233;42.708;23.360;2023-12-20T13:01:09;73.07;;;40.13;;
36191;SDS011;22233;42.708;23.360;2023-12-20T13:03:35;80.95;;;40.55;;
36191;SDS011;22233;42.708;23.360;2023-12-20T13:06:00;72.60;;;42.22;;
36191;SDS011;22233;42.708;23.360;2023-12-20T13:08:26;80.82;;;42.13;;
36191;SDS011;22233;42.708;23.360;2023-12-20T13:10:52;77.72;;;41.67;;
36191;SDS011;22233;42.708;23.360;2023-12-20T13:13:17;74.85;;;40.72;;
36191;SDS011;22233;42.708;23.360;2023-12-20T13:15:42;76.30;;;41.55;;
36191;SDS011;22233;42.708;23.360;2023-12-20T13:18:15;73.30;;;40.90;;
36191;SDS011;22233;42.708;23.360;2023-12-20T13:20:40;81.95;;;40.88;;
36191;SDS011;22233;42.708;23.360;2023-12-20T13:23:06;82.70;;;44.75;;
36191;SDS011;22233;42.708;23.360;2023-12-20T13:25:31;72.13;;;39.67;;
36191;SDS011;22233;42.708;23.360;2023-12-20T13:27:58;73.03;;;39.10;;
36191;SDS011;22233;42.708;23.360;2023-12-20T13:30:24;78.63;;;39.72;;
36191;SDS011;22233;42.708;23.360;2023-12-20T13:32:49;83.57;;;41.30;;
36191;SDS011;22233;42.708;23.360;2023-12-20T13:35:15;81.72;;;42.65;;
36191;SDS011;22233;42.708;23.360;2023-12-20T13:37:40;83.53;;;43.58;;
36191;SDS011;22233;42.708;23.360;2023-12-20T13:40:06;79.63;;;41.20;;
36191;SDS011;22233;42.708;23.360;2023-12-20T13:42:32;83.53;;;42.92;;
36191;SDS011;22233;42.708;23.360;2023-12-20T13:44:57;80.95;;;42.42;;
36191;SDS011;22233;42.708;23.360;2023-12-20T13:47:22;104.57;;;45.40;;
36191;SDS011;22233;42.708;23.360;2023-12-20T13:49:48;85.30;;;44.20;;
36191;SDS011;22233;42.708;23.360;2023-12-20T13:52:13;91.55;;;42.72;;
36191;SDS011;22233;42.708;23.360;2023-12-20T13:54:38;88.30;;;44.63;;
36191;SDS011;22233;42.708;23.360;2023-12-20T13:57:04;100.15;;;41.05;;
36191;SDS011;22233;42.708;23.360;2023-12-20T13:59:29;82.00;;;41.00;;
36191;SDS011;22233;42.708;23.360;2023-12-20T14:01:55;86.07;;;39.95;;
36191;SDS011;22233;42.708;23.360;2023-12-20T14:04:22;79.18;;;42.03;;
36191;SDS011;22233;42.708;23.360;2023-12-20T14:06:47;88.45;;;43.95;;
36191;SDS011;22233;42.708;23.360;2023-12-20T14:09:12;85.43;;;41.97;;